sensor_id;sensor_type;location;lat;lon;timestamp;temperature;humidity
35682;DHT22;21805;51.022;4.782;2023-05-15T00:18:33;13.70;99.90
35682;DHT22;21805;51.022;4.782;2023-05-15T00:24:17;13.60;99.90
35682;DHT22;21805;51.022;4.782;2023-05-15T05:52:06;13.20;99.90
35682;DHT22;21805;51.022;4.782;2023-05-15T05:57:03;13.40;99.90
35682;DHT22;21805;51.022;4.782;2023-05-15T06:11:14;13.70;99.90
35682;DHT22;21805;51.022;4.782;2023-05-15T06:13:48;13.70;99.90
35682;DHT22;21805;51.022;4.782;2023-05-15T06:37:27;13.60;99.90
35682;DHT22;21805;51.022;4.782;2023-05-15T07:00:51;14.10;99.90
35682;DHT22;21805;51.022;4.782;2023-05-15T07:03:32;14.10;99.90
35682;DHT22;21805;51.022;4.782;2023-05-15T07:22:13;14.90;99.90
35682;DHT22;21805;51.022;4.782;2023-05-15T07:29:58;14.90;99.90
35682;DHT22;21805;51.022;4.782;2023-05-15T07:35:04;15.00;99.90
35682;DHT22;21805;51.022;4.782;2023-05-15T07:37:43;15.10;99.90
35682;DHT22;21805;51.022;4.782;2023-05-15T07:40:20;15.20;99.90
35682;DHT22;21805;51.022;4.782;2023-05-15T07:42:47;15.30;99.90
35682;DHT22;21805;51.022;4.782;2023-05-15T07:45:28;15.40;99.90
35682;DHT22;21805;51.022;4.782;2023-05-15T07:47:57;15.60;99.90
35682;DHT22;21805;51.022;4.782;2023-05-15T07:50:45;15.70;99.90
35682;DHT22;21805;51.022;4.782;2023-05-15T07:53:17;15.60;99.90
35682;DHT22;21805;51.022;4.782;2023-05-15T08:04:35;16.00;99.90
35682;DHT22;21805;51.022;4.782;2023-05-15T08:13:37;16.30;99.90
35682;DHT22;21805;51.022;4.782;2023-05-15T08:19:37;16.30;99.90
35682;DHT22;21805;51.022;4.782;2023-05-15T08:25:38;16.40;99.90
35682;DHT22;21805;51.022;4.782;2023-05-15T08:28:25;16.50;99.90
35682;DHT22;21805;51.022;4.782;2023-05-15T08:30:51;16.90;99.90
35682;DHT22;21805;51.022;4.782;2023-05-15T08:33:17;17.10;99.90
35682;DHT22;21805;51.022;4.782;2023-05-15T08:35:45;17.20;99.90
35682;DHT22;21805;51.022;4.782;2023-05-15T08:41:20;17.60;99.90
35682;DHT22;21805;51.022;4.782;2023-05-15T08:43:53;18.20;99.90
35682;DHT22;21805;51.022;4.782;2023-05-15T08:46:22;18.60;99.90
35682;DHT22;21805;51.022;4.782;2023-05-15T08:49:08;19.00;99.90
35682;DHT22;21805;51.022;4.782;2023-05-15T08:52:02;19.30;99.90
35682;DHT22;21805;51.022;4.782;2023-05-15T08:58:05;19.80;99.90
35682;DHT22;21805;51.022;4.782;2023-05-15T09:06:39;20.10;99.90
35682;DHT22;21805;51.022;4.782;2023-05-15T09:17:40;19.50;99.90
35682;DHT22;21805;51.022;4.782;2023-05-15T09:23:02;20.00;99.90
35682;DHT22;21805;51.022;4.782;2023-05-15T09:25:41;20.10;99.90
35682;DHT22;21805;51.022;4.782;2023-05-15T09:28:23;20.20;99.90
35682;DHT22;21805;51.022;4.782;2023-05-15T09:30:55;20.00;99.90
35682;DHT22;21805;51.022;4.782;2023-05-15T09:33:28;19.90;99.90
35682;DHT22;21805;51.022;4.782;2023-05-15T09:35:54;19.90;99.90
35682;DHT22;21805;51.022;4.782;2023-05-15T09:38:20;20.10;99.90
35682;DHT22;21805;51.022;4.782;2023-05-15T09:43:18;20.50;99.90
35682;DHT22;21805;51.022;4.782;2023-05-15T09:45:45;20.40;99.90
35682;DHT22;21805;51.022;4.782;2023-05-15T09:48:12;20.50;99.90
35682;DHT22;21805;51.022;4.782;2023-05-15T09:50:45;20.60;99.90
35682;DHT22;21805;51.022;4.782;2023-05-15T09:56:04;20.90;99.90
35682;DHT22;21805;51.022;4.782;2023-05-15T09:58:30;21.00;99.90
35682;DHT22;21805;51.022;4.782;2023-05-15T10:00:58;21.20;99.90
35682;DHT22;21805;51.022;4.782;2023-05-15T10:03:23;21.30;99.90
35682;DHT22;21805;51.022;4.782;2023-05-15T10:05:49;21.30;99.90
35682;DHT22;21805;51.022;4.782;2023-05-15T10:08:15;21.10;99.90
35682;DHT22;21805;51.022;4.782;2023-05-15T10:10:53;20.70;99.90
35682;DHT22;21805;51.022;4.782;2023-05-15T10:13:26;20.20;99.90
35682;DHT22;21805;51.022;4.782;2023-05-15T10:15:53;20.10;99.90
35682;DHT22;21805;51.022;4.782;2023-05-15T10:18:25;20.10;99.90
35682;DHT22;21805;51.022;4.782;2023-05-15T10:20:52;20.30;99.90
35682;DHT22;21805;51.022;4.782;2023-05-15T10:28:17;20.80;99.90
35682;DHT22;21805;51.022;4.782;2023-05-15T10:30:46;21.00;99.90
35682;DHT22;21805;51.022;4.782;2023-05-15T10:33:17;21.00;99.90
35682;DHT22;21805;51.022;4.782;2023-05-15T10:35:49;21.10;99.90
35682;DHT22;21805;51.022;4.782;2023-05-15T10:38:18;21.00;99.90
35682;DHT22;21805;51.022;4.782;2023-05-15T10:40:45;21.10;99.90
35682;DHT22;21805;51.022;4.782;2023-05-15T10:43:20;21.10;99.90
35682;DHT22;21805;51.022;4.782;2023-05-15T10:45:51;21.30;99.90
35682;DHT22;21805;51.022;4.782;2023-05-15T10:48:24;21.20;99.90
35682;DHT22;21805;51.022;4.782;2023-05-15T10:50:51;20.90;99.90
35682;DHT22;21805;51.022;4.782;2023-05-15T10:53:22;20.70;99.90
35682;DHT22;21805;51.022;4.782;2023-05-15T10:55:54;20.60;99.90
35682;DHT22;21805;51.022;4.782;2023-05-15T10:58:29;20.40;99.90
35682;DHT22;21805;51.022;4.782;2023-05-15T11:00:57;19.90;99.90
35682;DHT22;21805;51.022;4.782;2023-05-15T11:03:35;19.40;99.90
35682;DHT22;21805;51.022;4.782;2023-05-15T11:08:41;19.10;99.90
35682;DHT22;21805;51.022;4.782;2023-05-15T11:11:08;19.00;99.90
35682;DHT22;21805;51.022;4.782;2023-05-15T11:50:47;18.20;99.90
35682;DHT22;21805;51.022;4.782;2023-05-15T12:11:57;17.10;99.90
35682;DHT22;21805;51.022;4.782;2023-05-15T12:20:14;17.20;99.90
35682;DHT22;21805;51.022;4.782;2023-05-15T12:28:22;17.10;99.90
35682;DHT22;21805;51.022;4.782;2023-05-15T12:31:00;17.10;99.90
35682;DHT22;21805;51.022;4.782;2023-05-15T12:36:32;16.90;99.90
35682;DHT22;21805;51.022;4.782;2023-05-15T12:39:10;16.90;99.90
35682;DHT22;21805;51.022;4.782;2023-05-15T12:41:39;16.90;99.90
35682;DHT22;21805;51.022;4.782;2023-05-15T12:47:14;16.80;99.90
35682;DHT22;21805;51.022;4.782;2023-05-15T13:01:06;16.60;99.90
35682;DHT22;21805;51.022;4.782;2023-05-15T13:31:17;16.30;99.90
35682;DHT22;21805;51.022;4.782;2023-05-15T13:36:39;16.40;99.90
35682;DHT22;21805;51.022;4.782;2023-05-15T13:42:01;16.10;99.90
35682;DHT22;21805;51.022;4.782;2023-05-15T13:44:31;16.00;99.90
35682;DHT22;21805;51.022;4.782;2023-05-15T13:46:57;15.90;99.90
35682;DHT22;21805;51.022;4.782;2023-05-15T13:49:44;15.90;99.90
35682;DHT22;21805;51.022;4.782;2023-05-15T13:52:28;15.80;99.90
35682;DHT22;21805;51.022;4.782;2023-05-15T14:06:06;15.40;99.90
35682;DHT22;21805;51.022;4.782;2023-05-15T14:11:46;15.20;99.90
35682;DHT22;21805;51.022;4.782;2023-05-15T14:14:30;15.20;99.90
35682;DHT22;21805;51.022;4.782;2023-05-15T14:35:58;14.90;99.90
35682;DHT22;21805;51.022;4.782;2023-05-15T14:38:43;15.00;99.90
35682;DHT22;21805;51.022;4.782;2023-05-15T14:41:15;15.20;99.90
35682;DHT22;21805;51.022;4.782;2023-05-15T14:43:49;15.20;99.90
35682;DHT22;21805;51.022;4.782;2023-05-15T14:46:32;15.30;99.90
35682;DHT22;21805;51.022;4.782;2023-05-15T14:49:33;15.10;99.90
35682;DHT22;21805;51.022;4.782;2023-05-15T14:52:12;15.20;99.90
35682;DHT22;21805;51.022;4.782;2023-05-15T14:54:39;15.10;99.90
35682;DHT22;21805;51.022;4.782;2023-05-15T14:57:10;15.00;99.90
35682;DHT22;21805;51.022;4.782;2023-05-15T14:59:44;15.00;99.90
35682;DHT22;21805;51.022;4.782;2023-05-15T15:02:38;14.90;99.90
35682;DHT22;21805;51.022;4.782;2023-05-15T15:05:40;14.90;99.90
35682;DHT22;21805;51.022;4.782;2023-05-15T15:08:29;15.00;99.90
35682;DHT22;21805;51.022;4.782;2023-05-15T15:48:33;14.50;99.90
35682;DHT22;21805;51.022;4.782;2023-05-15T15:51:05;14.60;99.90
35682;DHT22;21805;51.022;4.782;2023-05-15T15:53:38;14.60;99.90
35682;DHT22;21805;51.022;4.782;2023-05-15T15:56:10;14.70;99.90
35682;DHT22;21805;51.022;4.782;2023-05-15T15:58:52;14.70;99.90
35682;DHT22;21805;51.022;4.782;2023-05-15T16:01:18;14.80;99.90
35682;DHT22;21805;51.022;4.782;2023-05-15T16:03:49;14.80;99.90
35682;DHT22;21805;51.022;4.782;2023-05-15T16:06:18;14.80;99.90
35682;DHT22;21805;51.022;4.782;2023-05-15T16:08:48;14.90;99.90
35682;DHT22;21805;51.022;4.782;2023-05-15T16:11:16;14.90;99.90
35682;DHT22;21805;51.022;4.782;2023-05-15T16:13:43;14.80;99.90
35682;DHT22;21805;51.022;4.782;2023-05-15T16:16:12;14.80;99.90
35682;DHT22;21805;51.022;4.782;2023-05-15T16:18:39;15.00;99.90
35682;DHT22;21805;51.022;4.782;2023-05-15T16:21:07;14.80;99.90
35682;DHT22;21805;51.022;4.782;2023-05-15T16:29:18;14.80;99.90
35682;DHT22;21805;51.022;4.782;2023-05-15T16:31:54;14.60;99.90
35682;DHT22;21805;51.022;4.782;2023-05-15T16:34:56;14.60;99.90
35682;DHT22;21805;51.022;4.782;2023-05-15T16:39:54;14.60;99.90
35682;DHT22;21805;51.022;4.782;2023-05-15T16:42:23;14.70;99.90
35682;DHT22;21805;51.022;4.782;2023-05-15T16:44:50;14.70;99.90
35682;DHT22;21805;51.022;4.782;2023-05-15T16:47:19;14.80;99.90
35682;DHT22;21805;51.022;4.782;2023-05-15T16:49:45;14.80;99.90
35682;DHT22;21805;51.022;4.782;2023-05-15T16:52:10;14.70;99.90
35682;DHT22;21805;51.022;4.782;2023-05-15T16:57:08;14.50;99.90
35682;DHT22;21805;51.022;4.782;2023-05-15T16:59:40;14.50;99.90
35682;DHT22;21805;51.022;4.782;2023-05-15T17:02:05;14.40;99.90
35682;DHT22;21805;51.022;4.782;2023-05-15T17:07:03;14.30;99.90
35682;DHT22;21805;51.022;4.782;2023-05-15T17:09:29;14.20;99.90
35682;DHT22;21805;51.022;4.782;2023-05-15T17:11:57;14.20;99.90
35682;DHT22;21805;51.022;4.782;2023-05-15T17:14:26;14.20;99.90
35682;DHT22;21805;51.022;4.782;2023-05-15T17:16:53;14.20;99.90
35682;DHT22;21805;51.022;4.782;2023-05-15T17:19:28;14.20;99.90
35682;DHT22;21805;51.022;4.782;2023-05-15T17:22:04;14.10;99.90
35682;DHT22;21805;51.022;4.782;2023-05-15T17:24:36;14.10;99.90
35682;DHT22;21805;51.022;4.782;2023-05-15T17:27:02;14.00;99.90
35682;DHT22;21805;51.022;4.782;2023-05-15T17:32:54;13.90;99.90
35682;DHT22;21805;51.022;4.782;2023-05-15T17:35:22;14.00;99.90
35682;DHT22;21805;51.022;4.782;2023-05-15T17:37:50;13.90;99.90
35682;DHT22;21805;51.022;4.782;2023-05-15T17:40:20;14.00;99.90
35682;DHT22;21805;51.022;4.782;2023-05-15T17:42:46;14.00;99.90
35682;DHT22;21805;51.022;4.782;2023-05-15T17:45:14;14.00;99.90
35682;DHT22;21805;51.022;4.782;2023-05-15T17:47:41;14.00;99.90
35682;DHT22;21805;51.022;4.782;2023-05-15T17:50:17;13.90;99.90
35682;DHT22;21805;51.022;4.782;2023-05-15T17:53:03;13.90;99.90
35682;DHT22;21805;51.022;4.782;2023-05-15T17:55:53;14.00;99.90
35682;DHT22;21805;51.022;4.782;2023-05-15T18:07:56;13.90;99.90
35682;DHT22;21805;51.022;4.782;2023-05-15T18:16:05;13.80;99.90
35682;DHT22;21805;51.022;4.782;2023-05-15T18:18:32;13.80;99.90
35682;DHT22;21805;51.022;4.782;2023-05-15T18:21:04;13.90;99.90
35682;DHT22;21805;51.022;4.782;2023-05-15T18:23:31;13.90;99.90
35682;DHT22;21805;51.022;4.782;2023-05-15T18:25:58;13.90;99.90
35682;DHT22;21805;51.022;4.782;2023-05-15T18:28:28;13.90;99.90
35682;DHT22;21805;51.022;4.782;2023-05-15T18:33:31;13.90;99.90
35682;DHT22;21805;51.022;4.782;2023-05-15T18:38:26;13.90;99.90
35682;DHT22;21805;51.022;4.782;2023-05-15T18:43:23;13.90;99.90
35682;DHT22;21805;51.022;4.782;2023-05-15T18:48:18;13.80;99.90
35682;DHT22;21805;51.022;4.782;2023-05-15T18:53:12;13.70;99.90
35682;DHT22;21805;51.022;4.782;2023-05-15T18:55:41;13.60;99.90
35682;DHT22;21805;51.022;4.782;2023-05-15T18:58:10;13.60;99.90
35682;DHT22;21805;51.022;4.782;2023-05-15T19:03:06;13.40;99.90
35682;DHT22;21805;51.022;4.782;2023-05-15T19:05:44;13.20;99.90
35682;DHT22;21805;51.022;4.782;2023-05-15T19:08:11;13.10;99.90
35682;DHT22;21805;51.022;4.782;2023-05-15T19:10:40;13.20;99.90
35682;DHT22;21805;51.022;4.782;2023-05-15T19:13:24;13.30;99.90
35682;DHT22;21805;51.022;4.782;2023-05-15T19:22:11;13.50;99.90
35682;DHT22;21805;51.022;4.782;2023-05-15T19:27:07;13.30;99.90
35682;DHT22;21805;51.022;4.782;2023-05-15T19:29:41;13.30;99.90
35682;DHT22;21805;51.022;4.782;2023-05-15T19:37:17;13.20;99.90
35682;DHT22;21805;51.022;4.782;2023-05-15T19:39:45;13.10;99.90
35682;DHT22;21805;51.022;4.782;2023-05-15T19:42:14;13.00;99.90
35682;DHT22;21805;51.022;4.782;2023-05-15T19:47:09;12.90;99.90
35682;DHT22;21805;51.022;4.782;2023-05-15T19:52:04;13.00;99.90
35682;DHT22;21805;51.022;4.782;2023-05-15T19:54:31;12.90;99.90
35682;DHT22;21805;51.022;4.782;2023-05-15T19:57:00;12.90;99.90
35682;DHT22;21805;51.022;4.782;2023-05-15T19:59:29;12.80;99.90
35682;DHT22;21805;51.022;4.782;2023-05-15T20:01:58;12.80;99.90
35682;DHT22;21805;51.022;4.782;2023-05-15T20:04:26;12.80;99.90
35682;DHT22;21805;51.022;4.782;2023-05-15T20:06:55;12.80;99.90
35682;DHT22;21805;51.022;4.782;2023-05-15T20:11:50;12.70;99.90
35682;DHT22;21805;51.022;4.782;2023-05-15T20:14:17;12.80;99.90
35682;DHT22;21805;51.022;4.782;2023-05-15T20:19:14;12.80;99.90
35682;DHT22;21805;51.022;4.782;2023-05-15T20:21:41;12.90;99.90
35682;DHT22;21805;51.022;4.782;2023-05-15T20:24:09;12.90;99.90
35682;DHT22;21805;51.022;4.782;2023-05-15T20:26:44;12.90;99.90
35682;DHT22;21805;51.022;4.782;2023-05-15T20:31:39;12.80;99.90
35682;DHT22;21805;51.022;4.782;2023-05-15T20:36:39;12.80;99.90
35682;DHT22;21805;51.022;4.782;2023-05-15T20:39:06;12.90;99.90
35682;DHT22;21805;51.022;4.782;2023-05-15T20:41:36;12.90;99.90
35682;DHT22;21805;51.022;4.782;2023-05-15T20:44:03;13.00;99.90
35682;DHT22;21805;51.022;4.782;2023-05-15T20:46:29;12.90;99.90
35682;DHT22;21805;51.022;4.782;2023-05-15T20:51:23;12.90;99.90
35682;DHT22;21805;51.022;4.782;2023-05-15T20:53:50;12.90;99.90
35682;DHT22;21805;51.022;4.782;2023-05-15T20:56:16;12.90;99.90
35682;DHT22;21805;51.022;4.782;2023-05-15T20:58:42;12.90;99.90
35682;DHT22;21805;51.022;4.782;2023-05-15T21:01:08;12.80;99.90
35682;DHT22;21805;51.022;4.782;2023-05-15T21:03:35;12.70;99.90
35682;DHT22;21805;51.022;4.782;2023-05-15T21:06:04;12.70;99.90
35682;DHT22;21805;51.022;4.782;2023-05-15T21:11:02;12.70;99.90
35682;DHT22;21805;51.022;4.782;2023-05-15T21:16:00;12.70;99.90
35682;DHT22;21805;51.022;4.782;2023-05-15T21:18:25;12.60;99.90
35682;DHT22;21805;51.022;4.782;2023-05-15T21:20:51;12.60;99.90
35682;DHT22;21805;51.022;4.782;2023-05-15T21:23:17;12.60;99.90
35682;DHT22;21805;51.022;4.782;2023-05-15T21:25:45;12.60;99.90
35682;DHT22;21805;51.022;4.782;2023-05-15T21:28:11;12.60;99.90
35682;DHT22;21805;51.022;4.782;2023-05-15T21:30:38;12.70;99.90
35682;DHT22;21805;51.022;4.782;2023-05-15T21:33:07;12.70;99.90
35682;DHT22;21805;51.022;4.782;2023-05-15T21:35:33;12.70;99.90
35682;DHT22;21805;51.022;4.782;2023-05-15T21:38:01;12.60;99.90
35682;DHT22;21805;51.022;4.782;2023-05-15T21:40:27;12.70;99.90
